Weather at Paros National Airport

Public forecast

Using degrees Celsius for public forecast. Weather courtesy of forecast.io.

Current aviation weather report (METAR) for Paros National Airport

Retrieved 2021/04/12 21:50 UTC (27 minutes ago):

LGPA 122150Z AUTO 05004KT //// // ////// 10/05 Q1021 RE//

Closest aviation forecast (TAF) to Paros National Airport

Forecast is more than 12 hours old.

Closest forecast is Mikonos Airport, 27.3 nm (50.6 km) NNE. Retrieved 2012/09/27 00:18 UTC (9 years ago):

TAF TAF LGMK 272300Z 2800/2909 36016KT 9999 FEW020